createdAt,value
2022-11-13T12:24:34.666Z,25408.00
2022-11-13T12:25:34.558Z,24576.00
2022-11-13T12:26:34.544Z,24480.00
2022-11-13T12:27:34.514Z,24544.00
2022-11-13T12:28:38.402Z,24832.00
2022-11-13T12:29:34.476Z,25344.00
2022-11-13T12:30:34.467Z,24896.00
2022-11-13T12:31:34.437Z,22912.00
2022-11-13T12:32:34.417Z,22432.00
2022-11-13T12:33:34.403Z,23040.00
2022-11-13T12:34:34.392Z,23232.00
2022-11-13T12:35:34.375Z,22560.00
2022-11-13T12:36:34.345Z,23328.00
2022-11-13T12:37:34.330Z,24224.00
2022-11-13T12:38:34.305Z,23712.00
2022-11-13T12:39:34.300Z,23040.00
2022-11-13T12:40:34.369Z,22624.00
2022-11-13T12:41:34.254Z,22752.00
2022-11-13T12:42:34.236Z,22752.00
2022-11-13T12:43:34.228Z,22336.00
2022-11-13T12:44:34.203Z,22528.00
2022-11-13T12:45:34.198Z,21984.00
2022-11-13T12:46:34.173Z,21792.00
2022-11-13T12:47:34.157Z,21952.00
2022-11-13T12:48:34.144Z,21888.00
2022-11-13T12:49:34.128Z,21632.00
2022-11-13T12:50:34.122Z,22144.00
2022-11-13T12:51:34.110Z,23168.00
2022-11-13T12:52:34.076Z,23456.00
2022-11-13T12:53:34.058Z,23104.00
2022-11-13T12:54:34.041Z,22752.00
2022-11-13T12:55:34.028Z,21856.00
2022-11-13T12:56:34.091Z,21696.00
2022-11-13T12:57:33.988Z,21952.00
2022-11-13T12:58:33.976Z,21984.00
2022-11-13T12:59:33.953Z,22528.00
2022-11-13T13:00:33.956Z,22400.00
2022-11-13T13:01:33.987Z,21952.00
2022-11-13T13:02:33.917Z,22304.00
2022-11-13T13:03:33.901Z,22496.00
2022-11-13T13:04:33.875Z,20064.00
2022-11-13T13:05:33.885Z,19232.00
2022-11-13T13:06:33.843Z,18688.00
2022-11-13T13:07:33.830Z,18880.00
2022-11-13T13:08:33.813Z,20384.00
2022-11-13T13:09:33.799Z,18048.00
2022-11-13T13:10:33.809Z,16000.00
2022-11-13T13:11:33.778Z,14880.00
2022-11-13T13:12:33.827Z,15904.00
2022-11-13T13:13:33.753Z,20064.00
2022-11-13T13:14:33.731Z,22304.00
2022-11-13T13:15:33.710Z,21568.00
2022-11-13T13:16:33.714Z,20608.00
2022-11-13T13:17:33.677Z,21120.00
2022-11-13T13:18:33.685Z,21184.00
2022-11-13T13:19:33.664Z,21376.00
2022-11-13T13:20:33.631Z,20576.00
2022-11-13T13:21:33.630Z,20128.00
2022-11-13T13:22:33.606Z,19520.00
2022-11-13T13:23:33.595Z,17984.00
2022-11-13T13:24:33.577Z,15200.00
2022-11-13T13:25:33.566Z,10796.00
2022-11-13T13:26:33.564Z,8100.00
2022-11-13T13:27:33.565Z,6504.00
2022-11-13T13:28:33.587Z,5364.00
2022-11-13T13:29:33.512Z,4900.00
2022-11-13T13:30:33.489Z,5064.00
2022-11-13T13:31:33.485Z,5516.00
2022-11-13T13:32:33.468Z,5692.00
2022-11-13T13:33:33.442Z,5960.00
2022-11-13T13:34:35.257Z,6304.00
2022-11-13T13:35:33.428Z,7372.00
2022-11-13T13:36:33.422Z,8836.00
2022-11-13T13:37:33.392Z,6264.00
2022-11-13T13:38:33.377Z,3880.00
